sensor_id;sensor_type;location;lat;lon;timestamp;P1;durP1;ratioP1;P2;durP2;ratioP2
40058;SDS011;25763;49.972;8.568;2024-02-16T00:00:17;76.03;;;72.10;;
40058;SDS011;25763;49.972;8.568;2024-02-16T00:02:43;74.80;;;71.05;;
40058;SDS011;25763;49.972;8.568;2024-02-16T00:05:09;79.45;;;75.43;;
40058;SDS011;25763;49.972;8.568;2024-02-16T00:07:38;72.53;;;68.88;;
40058;SDS011;25763;49.972;8.568;2024-02-16T00:10:04;79.60;;;75.47;;
40058;SDS011;25763;49.972;8.568;2024-02-16T00:12:31;74.13;;;70.47;;
40058;SDS011;25763;49.972;8.568;2024-02-16T00:14:57;82.15;;;78.05;;
40058;SDS011;25763;49.972;8.568;2024-02-16T00:17:23;80.82;;;76.78;;
40058;SDS011;25763;49.972;8.568;2024-02-16T00:19:51;91.15;;;86.57;;
40058;SDS011;25763;49.972;8.568;2024-02-16T00:22:20;93.50;;;88.88;;
40058;SDS011;25763;49.972;8.568;2024-02-16T00:24:46;93.93;;;89.03;;
40058;SDS011;25763;49.972;8.568;2024-02-16T00:27:11;80.53;;;76.53;;
40058;SDS011;25763;49.972;8.568;2024-02-16T00:29:37;81.07;;;77.03;;
40058;SDS011;25763;49.972;8.568;2024-02-16T00:32:05;82.72;;;78.65;;
40058;SDS011;25763;49.972;8.568;2024-02-16T00:34:31;83.55;;;79.20;;
40058;SDS011;25763;49.972;8.568;2024-02-16T00:37:06;85.30;;;80.95;;
40058;SDS011;25763;49.972;8.568;2024-02-16T00:39:36;87.70;;;83.35;;
40058;SDS011;25763;49.972;8.568;2024-02-16T00:42:05;81.05;;;75.95;;
40058;SDS011;25763;49.972;8.568;2024-02-16T00:44:30;73.75;;;70.00;;
40058;SDS011;25763;49.972;8.568;2024-02-16T00:46:56;69.03;;;65.55;;
40058;SDS011;25763;49.972;8.568;2024-02-16T00:49:21;75.68;;;71.68;;
40058;SDS011;25763;49.972;8.568;2024-02-16T00:51:47;75.80;;;71.95;;
40058;SDS011;25763;49.972;8.568;2024-02-16T00:54:12;66.82;;;63.47;;
40058;SDS011;25763;49.972;8.568;2024-02-16T00:56:38;76.70;;;72.88;;
40058;SDS011;25763;49.972;8.568;2024-02-16T00:59:04;78.22;;;74.30;;
40058;SDS011;25763;49.972;8.568;2024-02-16T01:01:30;74.07;;;70.32;;
40058;SDS011;25763;49.972;8.568;2024-02-16T01:03:55;79.22;;;75.15;;
40058;SDS011;25763;49.972;8.568;2024-02-16T01:06:21;81.80;;;77.75;;
40058;SDS011;25763;49.972;8.568;2024-02-16T01:08:46;79.65;;;75.70;;
40058;SDS011;25763;49.972;8.568;2024-02-16T01:11:11;81.43;;;76.95;;
40058;SDS011;25763;49.972;8.568;2024-02-16T01:13:38;73.32;;;69.68;;
40058;SDS011;25763;49.972;8.568;2024-02-16T01:16:04;75.82;;;72.05;;
40058;SDS011;25763;49.972;8.568;2024-02-16T01:18:30;76.55;;;72.72;;
40058;SDS011;25763;49.972;8.568;2024-02-16T01:20:57;74.88;;;70.97;;
40058;SDS011;25763;49.972;8.568;2024-02-16T01:23:23;77.10;;;73.22;;
40058;SDS011;25763;49.972;8.568;2024-02-16T01:25:49;84.55;;;80.30;;
40058;SDS011;25763;49.972;8.568;2024-02-16T01:28:14;80.45;;;76.43;;
40058;SDS011;25763;49.972;8.568;2024-02-16T01:30:39;83.32;;;79.20;;
40058;SDS011;25763;49.972;8.568;2024-02-16T01:33:05;72.85;;;69.15;;
40058;SDS011;25763;49.972;8.568;2024-02-16T01:35:32;77.03;;;73.18;;
40058;SDS011;25763;49.972;8.568;2024-02-16T01:37:57;75.38;;;71.60;;
40058;SDS011;25763;49.972;8.568;2024-02-16T01:40:23;74.95;;;71.03;;
40058;SDS011;25763;49.972;8.568;2024-02-16T01:42:51;75.88;;;72.10;;
40058;SDS011;25763;49.972;8.568;2024-02-16T01:45:18;71.72;;;67.82;;
40058;SDS011;25763;49.972;8.568;2024-02-16T01:47:44;73.72;;;69.95;;
40058;SDS011;25763;49.972;8.568;2024-02-16T01:50:11;75.95;;;72.10;;
40058;SDS011;25763;49.972;8.568;2024-02-16T01:52:37;71.63;;;68.00;;
40058;SDS011;25763;49.972;8.568;2024-02-16T01:55:03;70.28;;;66.65;;
40058;SDS011;25763;49.972;8.568;2024-02-16T01:57:30;68.10;;;64.70;;
40058;SDS011;25763;49.972;8.568;2024-02-16T01:59:56;70.10;;;66.53;;
40058;SDS011;25763;49.972;8.568;2024-02-16T02:02:22;75.32;;;71.53;;
40058;SDS011;25763;49.972;8.568;2024-02-16T02:04:48;75.15;;;71.40;;
40058;SDS011;25763;49.972;8.568;2024-02-16T02:07:13;67.70;;;64.25;;
40058;SDS011;25763;49.972;8.568;2024-02-16T02:09:40;66.78;;;63.28;;
40058;SDS011;25763;49.972;8.568;2024-02-16T02:12:06;60.17;;;57.15;;
40058;SDS011;25763;49.972;8.568;2024-02-16T02:14:31;58.00;;;55.08;;
40058;SDS011;25763;49.972;8.568;2024-02-16T02:16:57;58.40;;;55.10;;
40058;SDS011;25763;49.972;8.568;2024-02-16T02:19:22;59.03;;;56.00;;
40058;SDS011;25763;49.972;8.568;2024-02-16T02:21:47;64.75;;;61.25;;
40058;SDS011;25763;49.972;8.568;2024-02-16T02:24:13;60.50;;;57.45;;
40058;SDS011;25763;49.972;8.568;2024-02-16T02:26:38;60.70;;;57.33;;
40058;SDS011;25763;49.972;8.568;2024-02-16T02:29:04;57.33;;;54.42;;
40058;SDS011;25763;49.972;8.568;2024-02-16T02:31:30;54.65;;;51.83;;
40058;SDS011;25763;49.972;8.568;2024-02-16T02:33:55;56.95;;;54.05;;
40058;SDS011;25763;49.972;8.568;2024-02-16T02:36:21;55.63;;;52.72;;
40058;SDS011;25763;49.972;8.568;2024-02-16T02:38:46;56.40;;;53.55;;
40058;SDS011;25763;49.972;8.568;2024-02-16T02:41:12;55.42;;;52.63;;
40058;SDS011;25763;49.972;8.568;2024-02-16T02:43:37;56.42;;;53.53;;
40058;SDS011;25763;49.972;8.568;2024-02-16T02:46:03;53.97;;;50.95;;
40058;SDS011;25763;49.972;8.568;2024-02-16T02:48:28;58.78;;;55.83;;
40058;SDS011;25763;49.972;8.568;2024-02-16T02:50:54;57.67;;;54.78;;
40058;SDS011;25763;49.972;8.568;2024-02-16T02:53:19;56.03;;;53.17;;
40058;SDS011;25763;49.972;8.568;2024-02-16T02:55:44;57.22;;;54.28;;
40058;SDS011;25763;49.972;8.568;2024-02-16T02:58:10;55.00;;;52.22;;
40058;SDS011;25763;49.972;8.568;2024-02-16T03:00:35;55.55;;;52.75;;
40058;SDS011;25763;49.972;8.568;2024-02-16T03:03:00;51.40;;;48.78;;
40058;SDS011;25763;49.972;8.568;2024-02-16T03:05:26;55.10;;;52.30;;
40058;SDS011;25763;49.972;8.568;2024-02-16T03:07:52;55.65;;;52.80;;
40058;SDS011;25763;49.972;8.568;2024-02-16T03:10:17;55.30;;;52.47;;
40058;SDS011;25763;49.972;8.568;2024-02-16T03:12:47;52.70;;;50.03;;
40058;SDS011;25763;49.972;8.568;2024-02-16T03:15:14;51.40;;;48.75;;
40058;SDS011;25763;49.972;8.568;2024-02-16T03:17:40;52.00;;;49.33;;
40058;SDS011;25763;49.972;8.568;2024-02-16T03:20:06;48.90;;;46.33;;
40058;SDS011;25763;49.972;8.568;2024-02-16T03:22:32;47.33;;;44.70;;
40058;SDS011;25763;49.972;8.568;2024-02-16T03:24:58;48.58;;;46.15;;
40058;SDS011;25763;49.972;8.568;2024-02-16T03:27:23;46.40;;;44.05;;
40058;SDS011;25763;49.972;8.568;2024-02-16T03:29:48;48.92;;;46.35;;
40058;SDS011;25763;49.972;8.568;2024-02-16T03:32:14;45.03;;;42.72;;
40058;SDS011;25763;49.972;8.568;2024-02-16T03:34:39;46.17;;;43.63;;
40058;SDS011;25763;49.972;8.568;2024-02-16T03:37:04;45.78;;;43.45;;
40058;SDS011;25763;49.972;8.568;2024-02-16T03:39:30;43.35;;;41.13;;
40058;SDS011;25763;49.972;8.568;2024-02-16T03:41:55;42.22;;;40.05;;
40058;SDS011;25763;49.972;8.568;2024-02-16T03:44:20;43.30;;;40.95;;
40058;SDS011;25763;49.972;8.568;2024-02-16T03:46:46;44.50;;;42.20;;
40058;SDS011;25763;49.972;8.568;2024-02-16T03:49:12;41.88;;;39.67;;
40058;SDS011;25763;49.972;8.568;2024-02-16T03:51:37;44.60;;;42.22;;
40058;SDS011;25763;49.972;8.568;2024-02-16T03:54:03;42.92;;;40.67;;
40058;SDS011;25763;49.972;8.568;2024-02-16T03:56:29;42.40;;;40.22;;
40058;SDS011;25763;49.972;8.568;2024-02-16T03:58:55;42.78;;;40.58;;
40058;SDS011;25763;49.972;8.568;2024-02-16T04:01:20;43.70;;;41.47;;
40058;SDS011;25763;49.972;8.568;2024-02-16T04:03:45;37.65;;;35.70;;
40058;SDS011;25763;49.972;8.568;2024-02-16T04:06:11;39.08;;;37.03;;
40058;SDS011;25763;49.972;8.568;2024-02-16T04:08:36;36.83;;;34.90;;
40058;SDS011;25763;49.972;8.568;2024-02-16T04:11:01;39.17;;;37.13;;
40058;SDS011;25763;49.972;8.568;2024-02-16T04:13:28;40.42;;;38.30;;
40058;SDS011;25763;49.972;8.568;2024-02-16T04:15:53;38.70;;;36.70;;
40058;SDS011;25763;49.972;8.568;2024-02-16T04:18:19;36.55;;;34.63;;
40058;SDS011;25763;49.972;8.568;2024-02-16T04:20:44;39.30;;;37.25;;
40058;SDS011;25763;49.972;8.568;2024-02-16T04:23:09;36.88;;;34.97;;
40058;SDS011;25763;49.972;8.568;2024-02-16T04:25:35;36.50;;;34.63;;
40058;SDS011;25763;49.972;8.568;2024-02-16T04:28:00;35.78;;;33.92;;
40058;SDS011;25763;49.972;8.568;2024-02-16T04:30:25;34.40;;;32.55;;
40058;SDS011;25763;49.972;8.568;2024-02-16T04:32:51;34.95;;;33.10;;
40058;SDS011;25763;49.972;8.568;2024-02-16T04:35:16;37.35;;;35.38;;
40058;SDS011;25763;49.972;8.568;2024-02-16T04:37:42;33.55;;;31.67;;
40058;SDS011;25763;49.972;8.568;2024-02-16T04:40:07;32.22;;;30.33;;
40058;SDS011;25763;49.972;8.568;2024-02-16T04:42:33;32.45;;;30.75;;
40058;SDS011;25763;49.972;8.568;2024-02-16T04:44:59;35.38;;;32.63;;
40058;SDS011;25763;49.972;8.568;2024-02-16T04:47:25;36.63;;;34.72;;
40058;SDS011;25763;49.972;8.568;2024-02-16T04:49:50;36.95;;;35.03;;
40058;SDS011;25763;49.972;8.568;2024-02-16T04:52:16;39.40;;;37.33;;
40058;SDS011;25763;49.972;8.568;2024-02-16T04:54:41;38.35;;;36.28;;
40058;SDS011;25763;49.972;8.568;2024-02-16T04:57:06;38.22;;;36.22;;
40058;SDS011;25763;49.972;8.568;2024-02-16T04:59:32;37.33;;;35.42;;
40058;SDS011;25763;49.972;8.568;2024-02-16T05:01:58;37.55;;;35.58;;
40058;SDS011;25763;49.972;8.568;2024-02-16T05:04:23;40.25;;;37.90;;
40058;SDS011;25763;49.972;8.568;2024-02-16T05:06:48;41.15;;;39.03;;
40058;SDS011;25763;49.972;8.568;2024-02-16T05:09:15;45.92;;;41.58;;
40058;SDS011;25763;49.972;8.568;2024-02-16T05:11:44;46.65;;;44.17;;
40058;SDS011;25763;49.972;8.568;2024-02-16T05:14:10;50.35;;;47.70;;
40058;SDS011;25763;49.972;8.568;2024-02-16T05:16:45;45.42;;;42.00;;
40058;SDS011;25763;49.972;8.568;2024-02-16T05:19:10;43.95;;;41.42;;
40058;SDS011;25763;49.972;8.568;2024-02-16T05:21:36;44.05;;;41.78;;
40058;SDS011;25763;49.972;8.568;2024-02-16T05:24:01;42.78;;;40.53;;
40058;SDS011;25763;49.972;8.568;2024-02-16T05:26:27;42.35;;;38.92;;
40058;SDS011;25763;49.972;8.568;2024-02-16T05:28:53;40.92;;;38.83;;
40058;SDS011;25763;49.972;8.568;2024-02-16T05:31:18;40.75;;;38.63;;
40058;SDS011;25763;49.972;8.568;2024-02-16T05:33:44;43.33;;;41.03;;
40058;SDS011;25763;49.972;8.568;2024-02-16T05:36:11;39.60;;;37.58;;
40058;SDS011;25763;49.972;8.568;2024-02-16T05:38:37;38.90;;;36.80;;
40058;SDS011;25763;49.972;8.568;2024-02-16T05:41:06;40.58;;;38.45;;
40058;SDS011;25763;49.972;8.568;2024-02-16T05:43:33;44.40;;;42.05;;
40058;SDS011;25763;49.972;8.568;2024-02-16T05:45:59;43.38;;;41.17;;
40058;SDS011;25763;49.972;8.568;2024-02-16T05:48:24;47.63;;;45.17;;
40058;SDS011;25763;49.972;8.568;2024-02-16T05:50:52;49.78;;;47.15;;
40058;SDS011;25763;49.972;8.568;2024-02-16T05:53:17;51.03;;;48.40;;
40058;SDS011;25763;49.972;8.568;2024-02-16T05:55:44;47.22;;;44.83;;
40058;SDS011;25763;49.972;8.568;2024-02-16T05:58:09;47.00;;;44.60;;
40058;SDS011;25763;49.972;8.568;2024-02-16T06:00:35;51.85;;;49.13;;
40058;SDS011;25763;49.972;8.568;2024-02-16T06:03:01;48.72;;;46.15;;
40058;SDS011;25763;49.972;8.568;2024-02-16T06:05:26;47.90;;;45.42;;
40058;SDS011;25763;49.972;8.568;2024-02-16T06:07:53;47.38;;;44.92;;
40058;SDS011;25763;49.972;8.568;2024-02-16T06:10:18;50.78;;;48.05;;
40058;SDS011;25763;49.972;8.568;2024-02-16T06:12:44;46.17;;;43.83;;
40058;SDS011;25763;49.972;8.568;2024-02-16T06:15:09;48.58;;;45.60;;
40058;SDS011;25763;49.972;8.568;2024-02-16T06:17:35;46.03;;;43.67;;
40058;SDS011;25763;49.972;8.568;2024-02-16T06:20:01;48.03;;;45.50;;
40058;SDS011;25763;49.972;8.568;2024-02-16T06:22:29;44.88;;;42.58;;
40058;SDS011;25763;49.972;8.568;2024-02-16T06:24:56;46.03;;;43.67;;
40058;SDS011;25763;49.972;8.568;2024-02-16T06:27:22;45.20;;;42.85;;
40058;SDS011;25763;49.972;8.568;2024-02-16T06:29:48;46.55;;;44.17;;
40058;SDS011;25763;49.972;8.568;2024-02-16T06:32:14;43.45;;;41.20;;
40058;SDS011;25763;49.972;8.568;2024-02-16T06:34:42;44.50;;;42.15;;
40058;SDS011;25763;49.972;8.568;2024-02-16T06:37:07;43.97;;;41.72;;
40058;SDS011;25763;49.972;8.568;2024-02-16T06:39:33;44.90;;;42.63;;
40058;SDS011;25763;49.972;8.568;2024-02-16T06:41:59;48.95;;;46.40;;
40058;SDS011;25763;49.972;8.568;2024-02-16T06:44:25;52.28;;;49.63;;
40058;SDS011;25763;49.972;8.568;2024-02-16T06:46:50;52.03;;;49.35;;
40058;SDS011;25763;49.972;8.568;2024-02-16T06:49:16;51.78;;;49.13;;
40058;SDS011;25763;49.972;8.568;2024-02-16T06:51:41;50.08;;;47.53;;
40058;SDS011;25763;49.972;8.568;2024-02-16T06:54:07;47.97;;;45.53;;
40058;SDS011;25763;49.972;8.568;2024-02-16T06:56:32;45.65;;;43.10;;
40058;SDS011;25763;49.972;8.568;2024-02-16T06:58:58;47.83;;;45.38;;
40058;SDS011;25763;49.972;8.568;2024-02-16T07:01:24;47.40;;;44.97;;
40058;SDS011;25763;49.972;8.568;2024-02-16T07:03:51;52.85;;;50.17;;
40058;SDS011;25763;49.972;8.568;2024-02-16T07:06:16;58.42;;;55.25;;
40058;SDS011;25763;49.972;8.568;2024-02-16T07:08:42;57.65;;;54.63;;
40058;SDS011;25763;49.972;8.568;2024-02-16T07:11:08;58.92;;;54.63;;
40058;SDS011;25763;49.972;8.568;2024-02-16T07:13:37;50.63;;;47.90;;
40058;SDS011;25763;49.972;8.568;2024-02-16T07:16:03;43.38;;;41.00;;
40058;SDS011;25763;49.972;8.568;2024-02-16T07:18:29;41.45;;;39.22;;
40058;SDS011;25763;49.972;8.568;2024-02-16T07:20:55;41.38;;;39.25;;
40058;SDS011;25763;49.972;8.568;2024-02-16T07:23:21;40.80;;;38.50;;
40058;SDS011;25763;49.972;8.568;2024-02-16T07:25:47;41.15;;;39.05;;
40058;SDS011;25763;49.972;8.568;2024-02-16T07:28:14;44.75;;;42.42;;
40058;SDS011;25763;49.972;8.568;2024-02-16T07:30:39;45.42;;;43.05;;
40058;SDS011;25763;49.972;8.568;2024-02-16T07:33:05;44.33;;;41.90;;
40058;SDS011;25763;49.972;8.568;2024-02-16T07:35:32;44.58;;;42.05;;
40058;SDS011;25763;49.972;8.568;2024-02-16T07:37:58;44.72;;;42.25;;
40058;SDS011;25763;49.972;8.568;2024-02-16T07:40:23;42.00;;;39.67;;
40058;SDS011;25763;49.972;8.568;2024-02-16T07:42:49;50.70;;;47.90;;
40058;SDS011;25763;49.972;8.568;2024-02-16T07:45:14;48.42;;;45.45;;
40058;SDS011;25763;49.972;8.568;2024-02-16T07:47:42;47.20;;;44.53;;
40058;SDS011;25763;49.972;8.568;2024-02-16T07:50:08;41.65;;;39.45;;
40058;SDS011;25763;49.972;8.568;2024-02-16T07:52:34;43.63;;;41.25;;
40058;SDS011;25763;49.972;8.568;2024-02-16T07:54:59;41.10;;;38.70;;
40058;SDS011;25763;49.972;8.568;2024-02-16T07:57:25;42.83;;;40.58;;
40058;SDS011;25763;49.972;8.568;2024-02-16T07:59:51;41.63;;;39.42;;
40058;SDS011;25763;49.972;8.568;2024-02-16T08:02:16;43.78;;;41.47;;
40058;SDS011;25763;49.972;8.568;2024-02-16T08:04:43;47.65;;;45.17;;
40058;SDS011;25763;49.972;8.568;2024-02-16T08:07:12;45.13;;;42.72;;
40058;SDS011;25763;49.972;8.568;2024-02-16T08:09:37;53.28;;;50.45;;
40058;SDS011;25763;49.972;8.568;2024-02-16T08:12:03;52.88;;;50.13;;
40058;SDS011;25763;49.972;8.568;2024-02-16T08:14:31;56.25;;;53.40;;
40058;SDS011;25763;49.972;8.568;2024-02-16T08:16:57;62.10;;;58.95;;
40058;SDS011;25763;49.972;8.568;2024-02-16T08:19:23;61.72;;;58.58;;
40058;SDS011;25763;49.972;8.568;2024-02-16T08:21:48;67.03;;;63.63;;
40058;SDS011;25763;49.972;8.568;2024-02-16T08:24:13;67.85;;;64.32;;
40058;SDS011;25763;49.972;8.568;2024-02-16T08:26:39;61.45;;;58.22;;
40058;SDS011;25763;49.972;8.568;2024-02-16T08:29:04;62.65;;;59.38;;
40058;SDS011;25763;49.972;8.568;2024-02-16T08:31:30;65.82;;;62.47;;
40058;SDS011;25763;49.972;8.568;2024-02-16T08:33:55;52.78;;;50.03;;
40058;SDS011;25763;49.972;8.568;2024-02-16T08:36:20;51.25;;;48.65;;
40058;SDS011;25763;49.972;8.568;2024-02-16T08:38:52;58.38;;;55.33;;
40058;SDS011;25763;49.972;8.568;2024-02-16T08:41:18;50.15;;;47.55;;
40058;SDS011;25763;49.972;8.568;2024-02-16T08:43:44;44.65;;;42.30;;
40058;SDS011;25763;49.972;8.568;2024-02-16T08:46:09;37.40;;;35.40;;
40058;SDS011;25763;49.972;8.568;2024-02-16T08:48:35;39.95;;;37.75;;
40058;SDS011;25763;49.972;8.568;2024-02-16T08:51:00;31.63;;;29.83;;
40058;SDS011;25763;49.972;8.568;2024-02-16T08:53:26;31.88;;;30.08;;
40058;SDS011;25763;49.972;8.568;2024-02-16T08:55:51;30.48;;;28.58;;
40058;SDS011;25763;49.972;8.568;2024-02-16T08:58:16;29.00;;;27.50;;
40058;SDS011;25763;49.972;8.568;2024-02-16T09:00:43;28.77;;;26.90;;
40058;SDS011;25763;49.972;8.568;2024-02-16T09:03:09;25.73;;;24.33;;
40058;SDS011;25763;49.972;8.568;2024-02-16T09:05:34;26.08;;;24.55;;
40058;SDS011;25763;49.972;8.568;2024-02-16T09:07:59;24.45;;;23.05;;
40058;SDS011;25763;49.972;8.568;2024-02-16T09:10:25;25.75;;;24.05;;
40058;SDS011;25763;49.972;8.568;2024-02-16T09:12:50;27.90;;;26.30;;
40058;SDS011;25763;49.972;8.568;2024-02-16T09:15:17;30.58;;;28.85;;
40058;SDS011;25763;49.972;8.568;2024-02-16T09:17:43;26.13;;;24.73;;
40058;SDS011;25763;49.972;8.568;2024-02-16T09:20:08;29.10;;;27.27;;
40058;SDS011;25763;49.972;8.568;2024-02-16T09:22:34;28.90;;;27.17;;
40058;SDS011;25763;49.972;8.568;2024-02-16T09:25:01;27.70;;;26.20;;
40058;SDS011;25763;49.972;8.568;2024-02-16T09:27:27;31.17;;;29.48;;
40058;SDS011;25763;49.972;8.568;2024-02-16T09:29:52;27.52;;;25.98;;
40058;SDS011;25763;49.972;8.568;2024-02-16T09:32:17;24.73;;;23.33;;
40058;SDS011;25763;49.972;8.568;2024-02-16T09:34:43;24.40;;;23.08;;
40058;SDS011;25763;49.972;8.568;2024-02-16T09:37:08;26.90;;;25.40;;
40058;SDS011;25763;49.972;8.568;2024-02-16T09:39:34;28.67;;;26.73;;
40058;SDS011;25763;49.972;8.568;2024-02-16T09:41:59;32.17;;;30.38;;
40058;SDS011;25763;49.972;8.568;2024-02-16T09:44:25;27.00;;;25.50;;
40058;SDS011;25763;49.972;8.568;2024-02-16T09:46:54;26.35;;;24.85;;
40058;SDS011;25763;49.972;8.568;2024-02-16T09:49:20;25.67;;;24.17;;
40058;SDS011;25763;49.972;8.568;2024-02-16T09:51:46;26.02;;;24.52;;
40058;SDS011;25763;49.972;8.568;2024-02-16T09:54:12;29.52;;;27.92;;
40058;SDS011;25763;49.972;8.568;2024-02-16T09:56:37;30.40;;;28.80;;
40058;SDS011;25763;49.972;8.568;2024-02-16T09:59:02;31.00;;;29.27;;
40058;SDS011;25763;49.972;8.568;2024-02-16T10:01:28;32.17;;;30.40;;
40058;SDS011;25763;49.972;8.568;2024-02-16T10:03:55;30.90;;;29.20;;
40058;SDS011;25763;49.972;8.568;2024-02-16T10:06:31;33.83;;;32.03;;
40058;SDS011;25763;49.972;8.568;2024-02-16T10:08:56;32.35;;;30.58;;
40058;SDS011;25763;49.972;8.568;2024-02-16T10:11:27;32.78;;;30.80;;
40058;SDS011;25763;49.972;8.568;2024-02-16T10:14:00;34.00;;;32.20;;
40058;SDS011;25763;49.972;8.568;2024-02-16T10:16:27;31.92;;;30.23;;
40058;SDS011;25763;49.972;8.568;2024-02-16T10:19:03;31.75;;;30.05;;
40058;SDS011;25763;49.972;8.568;2024-02-16T10:21:30;34.70;;;32.80;;
40058;SDS011;25763;49.972;8.568;2024-02-16T10:24:09;32.58;;;30.88;;
40058;SDS011;25763;49.972;8.568;2024-02-16T10:26:39;31.58;;;29.83;;
40058;SDS011;25763;49.972;8.568;2024-02-16T10:29:05;33.17;;;31.48;;
40058;SDS011;25763;49.972;8.568;2024-02-16T10:31:33;34.45;;;32.65;;
40058;SDS011;25763;49.972;8.568;2024-02-16T10:34:02;32.75;;;30.98;;
40058;SDS011;25763;49.972;8.568;2024-02-16T10:36:35;31.95;;;30.25;;
40058;SDS011;25763;49.972;8.568;2024-02-16T10:39:02;30.00;;;28.20;;
40058;SDS011;25763;49.972;8.568;2024-02-16T10:41:35;35.92;;;34.03;;
40058;SDS011;25763;49.972;8.568;2024-02-16T10:44:03;35.45;;;33.55;;
40058;SDS011;25763;49.972;8.568;2024-02-16T10:46:30;39.40;;;37.30;;
40058;SDS011;25763;49.972;8.568;2024-02-16T10:48:56;34.25;;;32.45;;
40058;SDS011;25763;49.972;8.568;2024-02-16T10:51:28;36.58;;;34.47;;
40058;SDS011;25763;49.972;8.568;2024-02-16T10:53:55;41.13;;;38.78;;
40058;SDS011;25763;49.972;8.568;2024-02-16T10:56:32;40.85;;;38.67;;
40058;SDS011;25763;49.972;8.568;2024-02-16T10:59:02;38.97;;;36.92;;
40058;SDS011;25763;49.972;8.568;2024-02-16T11:01:32;40.08;;;37.97;;
40058;SDS011;25763;49.972;8.568;2024-02-16T11:04:02;39.05;;;37.00;;
40058;SDS011;25763;49.972;8.568;2024-02-16T11:06:28;36.45;;;34.47;;
40058;SDS011;25763;49.972;8.568;2024-02-16T11:08:54;36.72;;;34.72;;
40058;SDS011;25763;49.972;8.568;2024-02-16T11:11:23;41.20;;;38.42;;
40058;SDS011;25763;49.972;8.568;2024-02-16T11:13:48;36.70;;;34.75;;
40058;SDS011;25763;49.972;8.568;2024-02-16T11:16:14;44.08;;;41.80;;
40058;SDS011;25763;49.972;8.568;2024-02-16T11:18:43;41.10;;;38.47;;
40058;SDS011;25763;49.972;8.568;2024-02-16T11:21:14;40.85;;;38.70;;
40058;SDS011;25763;49.972;8.568;2024-02-16T11:23:41;41.25;;;39.15;;
40058;SDS011;25763;49.972;8.568;2024-02-16T11:26:10;39.88;;;37.78;;
40058;SDS011;25763;49.972;8.568;2024-02-16T11:28:37;48.47;;;45.72;;
40058;SDS011;25763;49.972;8.568;2024-02-16T11:31:05;53.45;;;50.72;;
40058;SDS011;25763;49.972;8.568;2024-02-16T11:33:32;52.97;;;50.28;;
40058;SDS011;25763;49.972;8.568;2024-02-16T11:35:58;51.30;;;48.30;;
40058;SDS011;25763;49.972;8.568;2024-02-16T11:38:31;54.97;;;51.55;;
40058;SDS011;25763;49.972;8.568;2024-02-16T11:40:58;47.08;;;44.63;;
40058;SDS011;25763;49.972;8.568;2024-02-16T11:43:24;40.75;;;38.65;;
40058;SDS011;25763;49.972;8.568;2024-02-16T11:45:51;43.47;;;41.28;;
40058;SDS011;25763;49.972;8.568;2024-02-16T11:48:23;39.33;;;37.22;;
40058;SDS011;25763;49.972;8.568;2024-02-16T11:50:58;44.67;;;42.35;;
40058;SDS011;25763;49.972;8.568;2024-02-16T11:53:28;44.90;;;42.60;;
40058;SDS011;25763;49.972;8.568;2024-02-16T11:55:57;43.10;;;40.90;;
40058;SDS011;25763;49.972;8.568;2024-02-16T11:58:23;48.35;;;45.70;;
40058;SDS011;25763;49.972;8.568;2024-02-16T12:00:50;46.85;;;44.50;;
40058;SDS011;25763;49.972;8.568;2024-02-16T12:03:19;42.70;;;40.50;;
40058;SDS011;25763;49.972;8.568;2024-02-16T12:05:58;33.40;;;31.70;;
40058;SDS011;25763;49.972;8.568;2024-02-16T12:08:24;38.38;;;36.38;;
40058;SDS011;25763;49.972;8.568;2024-02-16T12:10:58;38.15;;;36.20;;
40058;SDS011;25763;49.972;8.568;2024-02-16T12:13:23;37.28;;;35.38;;
40058;SDS011;25763;49.972;8.568;2024-02-16T12:15:50;37.53;;;35.58;;
40058;SDS011;25763;49.972;8.568;2024-02-16T12:18:26;38.00;;;36.05;;
40058;SDS011;25763;49.972;8.568;2024-02-16T12:21:05;41.13;;;39.03;;
40058;SDS011;25763;49.972;8.568;2024-02-16T12:23:31;42.05;;;39.90;;
40058;SDS011;25763;49.972;8.568;2024-02-16T12:25:58;39.88;;;37.83;;
40058;SDS011;25763;49.972;8.568;2024-02-16T12:28:24;36.30;;;34.40;;
40058;SDS011;25763;49.972;8.568;2024-02-16T12:30:51;46.65;;;44.30;;
40058;SDS011;25763;49.972;8.568;2024-02-16T12:33:16;46.80;;;44.42;;
40058;SDS011;25763;49.972;8.568;2024-02-16T12:35:42;40.95;;;38.83;;
40058;SDS011;25763;49.972;8.568;2024-02-16T12:38:08;45.40;;;42.95;;
40058;SDS011;25763;49.972;8.568;2024-02-16T12:40:33;34.83;;;33.03;;
40058;SDS011;25763;49.972;8.568;2024-02-16T12:42:58;30.30;;;28.55;;
40058;SDS011;25763;49.972;8.568;2024-02-16T12:45:24;31.17;;;29.52;;
40058;SDS011;25763;49.972;8.568;2024-02-16T12:47:49;29.83;;;28.25;;
40058;SDS011;25763;49.972;8.568;2024-02-16T12:50:16;26.80;;;25.40;;
40058;SDS011;25763;49.972;8.568;2024-02-16T12:52:42;33.55;;;31.85;;
40058;SDS011;25763;49.972;8.568;2024-02-16T12:55:08;32.55;;;30.77;;
40058;SDS011;25763;49.972;8.568;2024-02-16T12:57:35;26.10;;;24.70;;
40058;SDS011;25763;49.972;8.568;2024-02-16T13:00:01;24.33;;;22.92;;
40058;SDS011;25763;49.972;8.568;2024-02-16T13:02:27;23.58;;;22.30;;
40058;SDS011;25763;49.972;8.568;2024-02-16T13:04:54;26.35;;;24.83;;
40058;SDS011;25763;49.972;8.568;2024-02-16T13:07:19;23.00;;;21.80;;
40058;SDS011;25763;49.972;8.568;2024-02-16T13:09:45;21.73;;;20.52;;
40058;SDS011;25763;49.972;8.568;2024-02-16T13:12:10;22.92;;;21.73;;
40058;SDS011;25763;49.972;8.568;2024-02-16T13:14:36;23.00;;;21.35;;
40058;SDS011;25763;49.972;8.568;2024-02-16T13:17:01;23.15;;;21.95;;
40058;SDS011;25763;49.972;8.568;2024-02-16T13:19:27;21.90;;;20.70;;
40058;SDS011;25763;49.972;8.568;2024-02-16T13:21:52;23.80;;;22.50;;
40058;SDS011;25763;49.972;8.568;2024-02-16T13:24:18;24.08;;;22.77;;
40058;SDS011;25763;49.972;8.568;2024-02-16T13:26:43;25.25;;;23.95;;
40058;SDS011;25763;49.972;8.568;2024-02-16T13:29:09;25.08;;;23.70;;
40058;SDS011;25763;49.972;8.568;2024-02-16T13:31:34;23.80;;;22.50;;
40058;SDS011;25763;49.972;8.568;2024-02-16T13:34:00;23.88;;;22.58;;
40058;SDS011;25763;49.972;8.568;2024-02-16T13:36:26;23.67;;;22.42;;
40058;SDS011;25763;49.972;8.568;2024-02-16T13:38:51;24.27;;;22.98;;
40058;SDS011;25763;49.972;8.568;2024-02-16T13:41:17;25.02;;;23.63;;
40058;SDS011;25763;49.972;8.568;2024-02-16T13:43:43;31.08;;;29.45;;
40058;SDS011;25763;49.972;8.568;2024-02-16T13:46:08;24.00;;;22.70;;
40058;SDS011;25763;49.972;8.568;2024-02-16T13:48:33;25.15;;;23.73;;
40058;SDS011;25763;49.972;8.568;2024-02-16T13:51:02;25.13;;;23.63;;
40058;SDS011;25763;49.972;8.568;2024-02-16T13:53:27;25.88;;;24.48;;
40058;SDS011;25763;49.972;8.568;2024-02-16T13:55:53;24.33;;;23.02;;
40058;SDS011;25763;49.972;8.568;2024-02-16T13:58:18;24.10;;;22.80;;
40058;SDS011;25763;49.972;8.568;2024-02-16T14:00:44;25.35;;;23.95;;
40058;SDS011;25763;49.972;8.568;2024-02-16T14:03:09;24.25;;;22.95;;
40058;SDS011;25763;49.972;8.568;2024-02-16T14:05:38;23.95;;;22.65;;
40058;SDS011;25763;49.972;8.568;2024-02-16T14:08:04;25.27;;;23.90;;
40058;SDS011;25763;49.972;8.568;2024-02-16T14:10:31;26.33;;;24.92;;
40058;SDS011;25763;49.972;8.568;2024-02-16T14:12:59;25.15;;;23.83;;
40058;SDS011;25763;49.972;8.568;2024-02-16T14:15:25;24.10;;;22.77;;